Bow Tone — HPAX — position and weather

sailwx.info

Track history (hours):
 
Tides and Currents Weather Stations Pressure Air Temp Water Temp Dewpoint Dewpoint Depression Visibility Wind Speed Wind Dir Waves Ship Positions

Bow Tone

Last reported at 2018-Jan-19 10:22 UTC. Time now 2018-Jan-22 10:42 UTC.
Position N 29°18' W 094°34'.

Length 170 m; draft 8 m.

Type: Tanker. MMSI: 352388000.

Date/timePositionNaut miles runAvg speedWind from/ knotsBaromVisibWave heightAir tempDewpointWater temp
2018-Jan-19 10:22N 29°18' W 094°34'  
2018-Jan-11 14:22N 29°44' W 095°16'1 3.1
2018-Jan-11 13:57N 29°43' W 095°14'3 5.2
2018-Jan-11 13:28N 29°44' W 095°12'2 5.4
2018-Jan-11 13:00N 29°44' W 095°09'3 5.8
2018-Jan-11 12:30N 29°45' W 095°06'3 5.5
2018-Jan-11 12:00N 29°44' W 095°03'4 7.6
2018-Jan-11 11:30N 29°42' W 094°60'4 7.3
2018-Jan-11 11:00N 29°38' W 094°58'2 4.7
2018-Jan-11 10:30N 29°37' W 094°60'1 2.3
2018-Jan-11 10:00N 29°37' W 095°01'0 0.0
2018-Jan-11 09:30N 29°37' W 095°01'0 0.0
2018-Jan-11 09:00N 29°37' W 095°01'0 0.0
2018-Jan-11 08:30N 29°37' W 095°01'0 0.0
2018-Jan-11 08:00N 29°37' W 095°01'0 0.0
2018-Jan-11 07:28N 29°37' W 095°01'0 0.0
2018-Jan-11 07:00N 29°37' W 095°01'0 0.0
2018-Jan-11 06:30N 29°37' W 095°01'0 0.0
2018-Jan-11 06:00N 29°37' W 095°01'0 0.0
2018-Jan-11 05:30N 29°37' W 095°01'0 0.0
2018-Jan-11 04:59N 29°37' W 095°01'0 0.0
2018-Jan-11 04:30N 29°37' W 095°01'0 0.0
2018-Jan-11 04:00N 29°37' W 095°01'0 0.0
2018-Jan-11 03:30N 29°37' W 095°01'0 0.0
2018-Jan-11 03:00N 29°37' W 095°01'0 0.0
2018-Jan-11 02:30N 29°37' W 095°01'0 0.0
2018-Jan-11 02:00N 29°37' W 095°01'0 0.0
2018-Jan-11 01:30N 29°37' W 095°01'0 0.0
2018-Jan-11 01:00N 29°37' W 095°01'0 0.0
2018-Jan-11 00:30N 29°37' W 095°01'0 0.0
2018-Jan-11 00:00N 29°37' W 095°01'0 0.0
2018-Jan-10 23:30N 29°37' W 095°01'0 0.0
2018-Jan-10 23:00N 29°37' W 095°01'0 0.0
2018-Jan-10 22:30N 29°37' W 095°01'0 0.0
2018-Jan-10 22:00N 29°37' W 095°01'0 0.0
2018-Jan-10 21:30N 29°37' W 095°01'0 0.0
2018-Jan-10 21:00N 29°37' W 095°01'0 0.0
2018-Jan-10 20:30N 29°37' W 095°01'0 0.0
2018-Jan-10 20:00N 29°37' W 095°01'0 0.0
2018-Jan-10 19:30N 29°37' W 095°01'0 0.0
2018-Jan-10 19:00N 29°37' W 095°01'0 0.0
2018-Jan-10 18:30N 29°37' W 095°01'0 0.0
2018-Jan-10 18:00N 29°37' W 095°01'0 0.0
2018-Jan-10 17:30N 29°37' W 095°01'0 0.0
2018-Jan-10 17:00N 29°37' W 095°01'0 0.0
2018-Jan-10 16:30N 29°37' W 095°01'0 0.0
2018-Jan-10 16:00N 29°37' W 095°01'0 0.0
2018-Jan-10 15:30N 29°37' W 095°01'0 0.0
2018-Jan-10 15:00N 29°37' W 095°01'0 0.0
2018-Jan-10 14:29N 29°37' W 095°01'0 0.0
2018-Jan-10 14:00N 29°37' W 095°01'0 0.0
2018-Jan-10 13:30N 29°37' W 095°01'0 0.0
2018-Jan-10 13:00N 29°37' W 095°01'0 0.0
2018-Jan-10 12:30N 29°37' W 095°01'0 0.0
2018-Jan-10 12:00N 29°37' W 095°01'0 0.0
2018-Jan-10 11:29N 29°37' W 095°01'0 0.0
2018-Jan-10 11:00N 29°37' W 095°01'0 0.0
2018-Jan-10 10:30N 29°37' W 095°01'0 0.0
2018-Jan-10 10:00N 29°37' W 095°01'0 0.0
2018-Jan-10 09:29N 29°37' W 095°01'0 0.0
2018-Jan-10 09:00N 29°37' W 095°01'0 0.0
2018-Jan-10 08:30N 29°37' W 095°01'0 0.0
2018-Jan-10 08:00N 29°37' W 095°01'0 0.0
2018-Jan-10 07:30N 29°37' W 095°01'0 0.0
2018-Jan-10 07:00N 29°37' W 095°01'0 0.0
2018-Jan-10 06:30N 29°37' W 095°01'0 0.0
2018-Jan-10 06:00N 29°37' W 095°01'0 0.0
2018-Jan-10 05:30N 29°37' W 095°01'0 0.0
2018-Jan-10 05:00N 29°37' W 095°01'0 0.0
2018-Jan-10 04:30N 29°37' W 095°01'0 0.0
2018-Jan-10 04:00N 29°37' W 095°01'0 0.0
2018-Jan-10 03:30N 29°37' W 095°01'0 0.0
2018-Jan-10 03:00N 29°37' W 095°01'0 0.0
2018-Jan-10 02:30N 29°37' W 095°01'0 0.0
2018-Jan-10 02:00N 29°37' W 095°01'0 0.0
2018-Jan-10 01:30N 29°37' W 095°01'0 0.0
2018-Jan-10 01:00N 29°37' W 095°01'0 0.0
2018-Jan-10 00:30N 29°37' W 095°01'0 0.0
2018-Jan-10 00:00N 29°37' W 095°01'0 0.0
2018-Jan-09 23:30N 29°37' W 095°01'0 0.0
2018-Jan-09 23:00N 29°37' W 095°01'0 0.0
2018-Jan-09 22:30N 29°37' W 095°01'0 0.0
2018-Jan-09 20:09N 29°37' W 095°01'0 0.0
2018-Jan-09 20:00N 29°37' W 095°01'0 0.0
2018-Jan-09 19:30N 29°37' W 095°01'0 0.0
2018-Jan-09 19:00N 29°37' W 095°01'0 0.0
2018-Jan-09 18:30N 29°37' W 095°01'0 0.0
2018-Jan-09 18:00N 29°37' W 095°01'0 0.0
2018-Jan-09 17:30N 29°37' W 095°01'0 0.0
2018-Jan-09 17:00N 29°37' W 095°01'0 0.0
2018-Jan-09 16:30N 29°37' W 095°01'0 0.0
2018-Jan-09 16:00N 29°37' W 095°01'0 0.0
2018-Jan-09 15:30N 29°37' W 095°01'0 0.0
2018-Jan-09 15:00N 29°37' W 095°01'0 0.0
2018-Jan-09 14:30N 29°37' W 095°01'0 0.0
2018-Jan-09 13:59N 29°37' W 095°01'0 0.0
2018-Jan-09 13:30N 29°37' W 095°01'0 0.0
2018-Jan-09 13:00N 29°37' W 095°01'0 0.0
2018-Jan-09 12:30N 29°37' W 095°01'  
Track history (hours):
 
Tides and Currents Weather Stations Pressure Air Temp Water Temp Dewpoint Dewpoint Depression Visibility Wind Speed Wind Dir Waves Ship Positions

Bow Tone

Last reported at 2018-Jan-19 10:22 UTC. Time now 2018-Jan-22 10:42 UTC.
Position N 29°18' W 094°34'.

Length 170 m; draft 8 m.

Type: Tanker. MMSI: 352388000.

Date/timePositionNaut miles runAvg speedWind from/ knotsBaromVisibWave heightAir tempDewpointWater temp
2018-Jan-19 10:22N 29°18' W 094°34'  
2018-Jan-11 14:22N 29°44' W 095°16'1 3.1
2018-Jan-11 13:57N 29°43' W 095°14'3 5.2
2018-Jan-11 13:28N 29°44' W 095°12'2 5.4
2018-Jan-11 13:00N 29°44' W 095°09'3 5.8
2018-Jan-11 12:30N 29°45' W 095°06'3 5.5
2018-Jan-11 12:00N 29°44' W 095°03'4 7.6
2018-Jan-11 11:30N 29°42' W 094°60'4 7.3
2018-Jan-11 11:00N 29°38' W 094°58'2 4.7
2018-Jan-11 10:30N 29°37' W 094°60'1 2.3
2018-Jan-11 10:00N 29°37' W 095°01'0 0.0
2018-Jan-11 09:30N 29°37' W 095°01'0 0.0
2018-Jan-11 09:00N 29°37' W 095°01'0 0.0
2018-Jan-11 08:30N 29°37' W 095°01'0 0.0
2018-Jan-11 08:00N 29°37' W 095°01'0 0.0
2018-Jan-11 07:28N 29°37' W 095°01'0 0.0
2018-Jan-11 07:00N 29°37' W 095°01'0 0.0
2018-Jan-11 06:30N 29°37' W 095°01'0 0.0
2018-Jan-11 06:00N 29°37' W 095°01'0 0.0
2018-Jan-11 05:30N 29°37' W 095°01'0 0.0
2018-Jan-11 04:59N 29°37' W 095°01'0 0.0
2018-Jan-11 04:30N 29°37' W 095°01'0 0.0
2018-Jan-11 04:00N 29°37' W 095°01'0 0.0
2018-Jan-11 03:30N 29°37' W 095°01'0 0.0
2018-Jan-11 03:00N 29°37' W 095°01'0 0.0
2018-Jan-11 02:30N 29°37' W 095°01'0 0.0
2018-Jan-11 02:00N 29°37' W 095°01'0 0.0
2018-Jan-11 01:30N 29°37' W 095°01'0 0.0
2018-Jan-11 01:00N 29°37' W 095°01'0 0.0
2018-Jan-11 00:30N 29°37' W 095°01'0 0.0
2018-Jan-11 00:00N 29°37' W 095°01'0 0.0
2018-Jan-10 23:30N 29°37' W 095°01'0 0.0
2018-Jan-10 23:00N 29°37' W 095°01'0 0.0
2018-Jan-10 22:30N 29°37' W 095°01'0 0.0
2018-Jan-10 22:00N 29°37' W 095°01'0 0.0
2018-Jan-10 21:30N 29°37' W 095°01'0 0.0
2018-Jan-10 21:00N 29°37' W 095°01'0 0.0
2018-Jan-10 20:30N 29°37' W 095°01'0 0.0
2018-Jan-10 20:00N 29°37' W 095°01'0 0.0
2018-Jan-10 19:30N 29°37' W 095°01'0 0.0
2018-Jan-10 19:00N 29°37' W 095°01'0 0.0
2018-Jan-10 18:30N 29°37' W 095°01'0 0.0
2018-Jan-10 18:00N 29°37' W 095°01'0 0.0
2018-Jan-10 17:30N 29°37' W 095°01'0 0.0
2018-Jan-10 17:00N 29°37' W 095°01'0 0.0
2018-Jan-10 16:30N 29°37' W 095°01'0 0.0
2018-Jan-10 16:00N 29°37' W 095°01'0 0.0
2018-Jan-10 15:30N 29°37' W 095°01'0 0.0
2018-Jan-10 15:00N 29°37' W 095°01'0 0.0
2018-Jan-10 14:29N 29°37' W 095°01'0 0.0
2018-Jan-10 14:00N 29°37' W 095°01'0 0.0
2018-Jan-10 13:30N 29°37' W 095°01'0 0.0
2018-Jan-10 13:00N 29°37' W 095°01'0 0.0
2018-Jan-10 12:30N 29°37' W 095°01'0 0.0
2018-Jan-10 12:00N 29°37' W 095°01'0 0.0
2018-Jan-10 11:29N 29°37' W 095°01'0 0.0
2018-Jan-10 11:00N 29°37' W 095°01'0 0.0
2018-Jan-10 10:30N 29°37' W 095°01'0 0.0
2018-Jan-10 10:00N 29°37' W 095°01'0 0.0
2018-Jan-10 09:29N 29°37' W 095°01'0 0.0
2018-Jan-10 09:00N 29°37' W 095°01'0 0.0
2018-Jan-10 08:30N 29°37' W 095°01'0 0.0
2018-Jan-10 08:00N 29°37' W 095°01'0 0.0
2018-Jan-10 07:30N 29°37' W 095°01'0 0.0
2018-Jan-10 07:00N 29°37' W 095°01'0 0.0
2018-Jan-10 06:30N 29°37' W 095°01'0 0.0
2018-Jan-10 06:00N 29°37' W 095°01'0 0.0
2018-Jan-10 05:30N 29°37' W 095°01'0 0.0
2018-Jan-10 05:00N 29°37' W 095°01'0 0.0
2018-Jan-10 04:30N 29°37' W 095°01'0 0.0
2018-Jan-10 04:00N 29°37' W 095°01'0 0.0
2018-Jan-10 03:30N 29°37' W 095°01'0 0.0
2018-Jan-10 03:00N 29°37' W 095°01'0 0.0
2018-Jan-10 02:30N 29°37' W 095°01'0 0.0
2018-Jan-10 02:00N 29°37' W 095°01'0 0.0
2018-Jan-10 01:30N 29°37' W 095°01'0 0.0
2018-Jan-10 01:00N 29°37' W 095°01'0 0.0
2018-Jan-10 00:30N 29°37' W 095°01'0 0.0
2018-Jan-10 00:00N 29°37' W 095°01'0 0.0
2018-Jan-09 23:30N 29°37' W 095°01'0 0.0
2018-Jan-09 23:00N 29°37' W 095°01'0 0.0
2018-Jan-09 22:30N 29°37' W 095°01'0 0.0
2018-Jan-09 20:09N 29°37' W 095°01'0 0.0
2018-Jan-09 20:00N 29°37' W 095°01'0 0.0
2018-Jan-09 19:30N 29°37' W 095°01'0 0.0
2018-Jan-09 19:00N 29°37' W 095°01'0 0.0
2018-Jan-09 18:30N 29°37' W 095°01'0 0.0
2018-Jan-09 18:00N 29°37' W 095°01'0 0.0
2018-Jan-09 17:30N 29°37' W 095°01'0 0.0
2018-Jan-09 17:00N 29°37' W 095°01'0 0.0
2018-Jan-09 16:30N 29°37' W 095°01'0 0.0
2018-Jan-09 16:00N 29°37' W 095°01'0 0.0
2018-Jan-09 15:30N 29°37' W 095°01'0 0.0
2018-Jan-09 15:00N 29°37' W 095°01'0 0.0
2018-Jan-09 14:30N 29°37' W 095°01'0 0.0
2018-Jan-09 13:59N 29°37' W 095°01'0 0.0
2018-Jan-09 13:30N 29°37' W 095°01'0 0.0
2018-Jan-09 13:00N 29°37' W 095°01'0 0.0
2018-Jan-09 12:30N 29°37' W 095°01'  

Dump ship's entire track history